createdAt,value
2023-02-11T00:00:40.846Z,2.25
2023-02-11T00:03:08.209Z,2.23
2023-02-11T00:05:36.099Z,2.27
2023-02-11T00:08:03.569Z,2.39
2023-02-11T00:10:30.263Z,2.40
2023-02-11T00:12:56.787Z,2.37
2023-02-11T00:15:23.930Z,2.27
2023-02-11T00:17:50.630Z,2.20
2023-02-11T00:20:17.966Z,2.24
2023-02-11T00:22:45.297Z,2.29
2023-02-11T00:25:12.374Z,2.36
2023-02-11T00:27:41.271Z,2.43
2023-02-11T00:30:08.491Z,2.41
2023-02-11T00:32:36.927Z,2.32
2023-02-11T00:35:03.569Z,2.22
2023-02-11T00:37:30.107Z,2.03
2023-02-11T00:39:56.685Z,1.98
2023-02-11T00:42:23.173Z,2.08
2023-02-11T00:44:50.221Z,2.02
2023-02-11T00:47:17.039Z,1.99
2023-02-11T00:49:43.857Z,1.91
2023-02-11T00:52:10.809Z,1.88
2023-02-11T00:54:37.363Z,1.83
2023-02-11T00:57:03.972Z,1.77
2023-02-11T00:59:30.528Z,1.59
2023-02-11T01:01:57.155Z,1.47
2023-02-11T01:04:24.106Z,1.56
2023-02-11T01:06:50.664Z,1.47
2023-02-11T01:09:17.325Z,1.39
2023-02-11T01:11:44.169Z,1.61
2023-02-11T01:14:10.848Z,1.55
2023-02-11T01:16:38.001Z,1.54
2023-02-11T01:19:04.572Z,1.45
2023-02-11T01:21:31.295Z,1.22
2023-02-11T01:23:57.714Z,1.05
2023-02-11T01:26:24.330Z,1.14
2023-02-11T01:28:50.986Z,1.16
2023-02-11T01:31:17.435Z,1.04
2023-02-11T01:33:44.487Z,0.99
2023-02-11T01:36:11.962Z,0.97
2023-02-11T01:38:40.779Z,1.15
2023-02-11T01:41:10.299Z,1.17
2023-02-11T01:43:39.806Z,1.22
2023-02-11T01:46:32.885Z,1.13
2023-02-11T01:49:10.835Z,1.14
2023-02-11T01:51:41.191Z,1.01
2023-02-11T01:54:28.619Z,1.00
2023-02-11T01:57:17.393Z,0.97
2023-02-11T01:59:48.399Z,1.00
2023-02-11T02:02:19.776Z,0.96
2023-02-11T02:04:53.537Z,0.95
2023-02-11T02:07:28.728Z,0.76
2023-02-11T02:10:01.730Z,0.68
2023-02-11T02:12:28.211Z,0.62
2023-02-11T02:15:31.473Z,0.76
2023-02-11T02:18:00.907Z,0.84
2023-02-11T02:20:36.337Z,0.86
2023-02-11T02:23:21.062Z,0.94
2023-02-11T02:26:04.561Z,0.73
2023-02-11T02:28:48.452Z,0.78
2023-02-11T02:31:36.450Z,0.74
2023-02-11T02:34:09.622Z,0.72
2023-02-11T02:36:56.628Z,0.84
2023-02-11T02:39:31.809Z,0.91
2023-02-11T02:41:58.461Z,0.99
2023-02-11T02:44:25.512Z,0.95
2023-02-11T02:46:52.172Z,0.89
2023-02-11T02:49:18.626Z,0.76
2023-02-11T02:52:07.094Z,0.92
2023-02-11T02:54:33.849Z,1.03
2023-02-11T02:57:32.794Z,0.90
2023-02-11T03:00:29.727Z,0.89
2023-02-11T03:03:38.249Z,0.84
2023-02-11T03:06:14.164Z,0.81
2023-02-11T03:08:47.141Z,0.71
2023-02-11T03:11:16.982Z,0.69
2023-02-11T03:13:46.310Z,0.68
2023-02-11T03:16:38.961Z,0.78
2023-02-11T03:19:12.571Z,0.86
2023-02-11T03:21:42.960Z,0.75
2023-02-11T03:24:16.773Z,0.51
2023-02-11T03:26:49.611Z,0.41
2023-02-11T03:29:51.451Z,0.35
2023-02-11T03:32:32.692Z,0.22
2023-02-11T03:35:10.350Z,0.27
2023-02-11T03:37:53.079Z,0.07
2023-02-11T03:40:26.766Z,0.05
2023-02-11T03:43:00.208Z,-0.03
2023-02-11T03:45:28.521Z,-0.09
2023-02-11T03:48:00.023Z,-0.10
2023-02-11T03:50:31.111Z,-0.03
2023-02-11T03:53:01.893Z,0.16
2023-02-11T03:55:30.664Z,0.07
2023-02-11T03:57:57.476Z,0.12
2023-02-11T04:00:32.480Z,0.25
2023-02-11T04:03:01.295Z,0.10
2023-02-11T04:05:28.197Z,-0.04
2023-02-11T04:07:54.771Z,-0.08
2023-02-11T04:10:21.377Z,0.03
2023-02-11T04:12:47.989Z,0.09
2023-02-11T04:15:14.765Z,-0.06
2023-02-11T04:17:42.065Z,-0.04
2023-02-11T04:20:09.230Z,0.02
2023-02-11T04:22:36.387Z,0.05
2023-02-11T04:25:04.310Z,0.02
2023-02-11T04:27:31.508Z,0.00
2023-02-11T04:29:57.883Z,-0.07
2023-02-11T04:32:24.963Z,-0.05
2023-02-11T04:34:51.929Z,-0.05
2023-02-11T04:37:18.388Z,-0.08
2023-02-11T04:39:45.227Z,-0.05
2023-02-11T04:42:12.440Z,-0.23
2023-02-11T04:44:39.669Z,-0.33
2023-02-11T04:47:06.229Z,-0.34
2023-02-11T04:49:32.648Z,-0.28
2023-02-11T04:51:59.397Z,-0.29
2023-02-11T04:54:25.928Z,-0.23
2023-02-11T04:56:52.689Z,-0.20
2023-02-11T04:59:19.020Z,-0.32
2023-02-11T05:01:45.867Z,-0.22
2023-02-11T05:04:12.543Z,-0.26
2023-02-11T05:06:39.932Z,-0.37
2023-02-11T05:09:06.337Z,-0.34
2023-02-11T05:11:32.901Z,-0.32
2023-02-11T05:13:59.989Z,-0.20
2023-02-11T05:16:27.019Z,-0.21
2023-02-11T05:18:55.508Z,-0.06
2023-02-11T05:21:22.887Z,0.20
2023-02-11T05:23:50.247Z,0.17
2023-02-11T05:26:17.108Z,0.23
2023-02-11T05:28:44.841Z,0.32
2023-02-11T05:31:12.366Z,0.43
2023-02-11T05:33:39.050Z,0.44
2023-02-11T05:36:09.276Z,0.52
2023-02-11T05:38:36.345Z,0.62
2023-02-11T05:41:04.724Z,0.59
2023-02-11T05:43:31.595Z,0.59
2023-02-11T05:45:58.508Z,0.71
2023-02-11T05:48:24.992Z,0.82
2023-02-11T05:50:51.453Z,0.80
2023-02-11T05:53:18.019Z,0.80
2023-02-11T05:55:44.962Z,0.79
2023-02-11T05:58:11.355Z,0.92
2023-02-11T06:00:38.520Z,1.03
2023-02-11T06:03:05.666Z,0.95
2023-02-11T06:05:32.400Z,0.98
2023-02-11T06:07:59.434Z,1.08
2023-02-11T06:10:26.690Z,0.90
2023-02-11T06:12:53.097Z,0.86
2023-02-11T06:15:20.050Z,0.88
2023-02-11T06:17:46.749Z,0.87
2023-02-11T06:20:13.393Z,0.89
2023-02-11T06:22:40.593Z,0.93
2023-02-11T06:25:07.184Z,0.91
2023-02-11T06:27:33.784Z,0.91
2023-02-11T06:30:01.451Z,0.85
2023-02-11T06:32:43.981Z,0.97
2023-02-11T06:35:12.713Z,0.94
2023-02-11T06:37:40.823Z,0.94
2023-02-11T06:40:07.566Z,0.98
2023-02-11T06:42:35.980Z,0.97
2023-02-11T06:45:05.867Z,0.92
2023-02-11T06:47:33.135Z,0.94
2023-02-11T06:49:59.546Z,1.00
2023-02-11T06:52:26.616Z,1.08
2023-02-11T06:54:53.261Z,1.12
2023-02-11T06:57:19.758Z,1.14
2023-02-11T06:59:46.312Z,1.08
2023-02-11T07:02:12.844Z,1.20
2023-02-11T07:04:39.978Z,1.30
2023-02-11T07:07:06.528Z,1.22
2023-02-11T07:09:33.551Z,1.21
2023-02-11T07:12:00.154Z,1.26
2023-02-11T07:14:27.189Z,1.34
2023-02-11T07:16:53.994Z,1.32
2023-02-11T07:19:20.390Z,1.39
2023-02-11T07:21:48.497Z,1.48
2023-02-11T07:24:15.241Z,1.50
2023-02-11T07:26:41.756Z,1.60
2023-02-11T07:29:08.193Z,1.67
2023-02-11T07:31:34.699Z,1.84
2023-02-11T07:34:02.114Z,1.73
2023-02-11T07:36:31.691Z,1.78
2023-02-11T07:38:58.938Z,1.68
2023-02-11T07:41:26.082Z,1.78
2023-02-11T07:43:53.036Z,1.74
2023-02-11T07:46:22.152Z,1.83
2023-02-11T07:48:48.863Z,1.93
2023-02-11T07:51:20.813Z,1.79
2023-02-11T07:53:49.344Z,1.81
2023-02-11T07:56:17.262Z,1.84
2023-02-11T07:58:44.564Z,1.93
2023-02-11T08:01:15.441Z,2.07
2023-02-11T08:03:43.177Z,2.13
2023-02-11T08:06:16.504Z,2.18
2023-02-11T08:08:44.047Z,2.26
2023-02-11T08:11:16.917Z,2.11
2023-02-11T08:13:44.251Z,2.11
2023-02-11T08:16:24.195Z,2.08
2023-02-11T08:18:51.682Z,2.14
2023-02-11T08:21:19.326Z,2.24
2023-02-11T08:23:46.886Z,2.27
2023-02-11T08:26:16.579Z,2.30
2023-02-11T08:28:46.369Z,2.40
2023-02-11T08:31:25.230Z,2.58
2023-02-11T08:33:53.179Z,2.52
2023-02-11T08:36:25.274Z,2.59
2023-02-11T08:38:57.161Z,2.53
2023-02-11T08:41:29.760Z,2.58
2023-02-11T08:43:56.368Z,2.60
2023-02-11T08:46:23.053Z,2.61
2023-02-11T08:48:50.182Z,2.65
2023-02-11T08:51:28.539Z,2.69
2023-02-11T08:53:55.835Z,2.70
2023-02-11T08:56:24.815Z,2.81
2023-02-11T08:58:52.754Z,2.86
2023-02-11T09:01:24.989Z,2.99
2023-02-11T09:03:52.571Z,3.15
2023-02-11T09:06:19.709Z,3.36
2023-02-11T09:08:49.362Z,3.37
2023-02-11T09:11:18.840Z,3.34
2023-02-11T09:13:46.049Z,3.34
2023-02-11T09:16:26.231Z,3.40
2023-02-11T09:18:53.495Z,3.29
2023-02-11T09:21:20.269Z,3.27
2023-02-11T09:23:47.888Z,3.37
2023-02-11T09:26:18.587Z,3.39
2023-02-11T09:28:45.790Z,3.34
2023-02-11T09:31:16.404Z,3.29
2023-02-11T09:33:47.891Z,3.28
2023-02-11T09:36:32.210Z,3.46
2023-02-11T09:39:00.826Z,3.47
2023-02-11T09:41:41.352Z,3.44
2023-02-11T09:44:17.998Z,3.41
2023-02-11T09:46:53.091Z,3.62
2023-02-11T09:49:26.319Z,3.53
2023-02-11T09:52:54.130Z,3.69
2023-02-11T09:55:26.786Z,3.84
2023-02-11T09:57:56.017Z,3.89
2023-02-11T10:00:28.489Z,3.99
2023-02-11T10:03:03.815Z,4.08
2023-02-11T10:05:43.059Z,3.97
2023-02-11T10:08:25.757Z,4.12
2023-02-11T10:11:02.929Z,4.28
2023-02-11T10:13:42.690Z,4.21
2023-02-11T10:16:41.888Z,4.24
2023-02-11T10:19:28.036Z,4.29
2023-02-11T10:22:13.267Z,4.40
2023-02-11T10:24:55.344Z,4.60
2023-02-11T10:27:30.524Z,4.47
2023-02-11T10:30:16.434Z,4.47
2023-02-11T10:32:48.522Z,4.55
2023-02-11T10:35:21.554Z,4.60
2023-02-11T10:37:49.054Z,4.65
2023-02-11T10:40:22.225Z,4.73
2023-02-11T10:42:55.105Z,4.73
2023-02-11T10:45:31.958Z,4.78
2023-02-11T10:48:00.650Z,4.91
2023-02-11T10:50:30.214Z,4.94
2023-02-11T10:53:15.427Z,4.85
2023-02-11T10:55:51.085Z,4.87
2023-02-11T10:58:25.513Z,4.86
2023-02-11T11:00:55.066Z,4.95
2023-02-11T11:03:25.261Z,5.10
2023-02-11T11:05:59.731Z,5.28
2023-02-11T11:08:43.509Z,5.20
2023-02-11T11:11:13.183Z,5.18
2023-02-11T11:13:58.053Z,5.36
2023-02-11T11:16:35.512Z,5.52
2023-02-11T11:19:07.776Z,5.37
2023-02-11T11:21:43.340Z,5.47
2023-02-11T11:24:31.168Z,5.47
2023-02-11T11:27:03.634Z,5.46
2023-02-11T11:29:35.429Z,5.63
2023-02-11T11:32:05.775Z,5.56
2023-02-11T11:34:40.443Z,5.55
2023-02-11T11:37:20.238Z,5.57
2023-02-11T11:39:57.679Z,5.50
2023-02-11T11:42:28.714Z,5.46
2023-02-11T11:45:23.096Z,5.56
2023-02-11T11:47:59.662Z,5.50
2023-02-11T11:50:29.144Z,5.53
2023-02-11T11:53:04.877Z,5.48
2023-02-11T11:55:37.868Z,5.46
2023-02-11T11:58:10.501Z,5.45
2023-02-11T12:00:54.237Z,5.42
2023-02-11T12:03:56.392Z,5.41
2023-02-11T12:06:48.115Z,5.44
2023-02-11T12:09:25.801Z,5.44
2023-02-11T12:12:11.419Z,5.62
2023-02-11T12:14:53.729Z,5.57
2023-02-11T12:17:35.259Z,5.61
2023-02-11T12:20:35.353Z,5.85
2023-02-11T12:23:15.124Z,5.83
2023-02-11T12:25:59.027Z,5.68
2023-02-11T12:28:40.248Z,5.70
2023-02-11T12:31:19.849Z,5.72
2023-02-11T12:34:18.704Z,5.86
2023-02-11T12:37:06.243Z,6.11
2023-02-11T12:39:40.407Z,6.09
2023-02-11T12:42:55.679Z,6.09
2023-02-11T12:45:41.468Z,6.00
2023-02-11T12:48:29.042Z,6.14
2023-02-11T12:51:06.885Z,6.22
2023-02-11T12:53:44.147Z,6.16
2023-02-11T12:56:29.170Z,6.03
2023-02-11T12:58:58.866Z,6.14
2023-02-11T13:01:36.539Z,6.11
2023-02-11T13:04:11.863Z,6.09
2023-02-11T13:06:48.945Z,6.25
2023-02-11T13:09:22.497Z,6.16
2023-02-11T13:11:57.699Z,6.09
2023-02-11T13:14:38.953Z,6.04
2023-02-11T13:17:27.332Z,5.94
2023-02-11T13:20:01.364Z,6.07
2023-02-11T13:22:57.575Z,6.11
2023-02-11T13:25:43.371Z,6.13
2023-02-11T13:28:28.814Z,6.13
2023-02-11T13:31:03.023Z,6.02
2023-02-11T13:33:39.335Z,5.99
2023-02-11T13:36:05.972Z,5.95
2023-02-11T13:38:33.029Z,6.10
2023-02-11T13:41:07.068Z,6.07
2023-02-11T13:43:36.194Z,6.10
2023-02-11T13:46:05.785Z,6.04
2023-02-11T13:48:53.833Z,6.13
2023-02-11T13:51:38.935Z,6.13
2023-02-11T13:54:07.526Z,6.13
2023-02-11T13:56:43.961Z,6.11
2023-02-11T13:59:26.267Z,6.09
2023-02-11T14:02:11.938Z,6.21
2023-02-11T14:05:23.530Z,6.26
2023-02-11T14:08:30.136Z,6.18
2023-02-11T14:10:58.969Z,6.24
2023-02-11T14:13:30.711Z,6.19
2023-02-11T14:16:20.382Z,6.27
2023-02-11T14:18:55.683Z,6.37
2023-02-11T14:21:32.211Z,6.45
2023-02-11T14:24:01.870Z,6.49
2023-02-11T14:26:42.538Z,6.52
2023-02-11T14:29:27.419Z,6.50
2023-02-11T14:32:25.984Z,6.37
2023-02-11T14:35:04.293Z,6.41
2023-02-11T14:37:50.762Z,6.39
2023-02-11T14:40:32.195Z,6.36
2023-02-11T14:43:11.562Z,6.25
2023-02-11T14:45:39.051Z,6.28
2023-02-11T14:48:14.784Z,6.36
2023-02-11T14:50:53.937Z,6.33
2023-02-11T14:53:23.936Z,6.34
2023-02-11T14:55:52.802Z,6.52
2023-02-11T14:58:30.621Z,6.41
2023-02-11T15:01:00.952Z,6.35
2023-02-11T15:03:33.437Z,6.47
2023-02-11T15:06:05.556Z,6.41
2023-02-11T15:08:35.969Z,6.46
2023-02-11T15:11:07.910Z,6.48
2023-02-11T15:13:35.041Z,6.46
2023-02-11T15:16:06.849Z,6.42
2023-02-11T15:18:40.594Z,6.32
2023-02-11T15:21:08.897Z,6.21
2023-02-11T15:23:37.136Z,6.09
2023-02-11T15:26:13.067Z,6.08
2023-02-11T15:28:48.851Z,6.05
2023-02-11T15:31:17.361Z,6.02
2023-02-11T15:33:44.437Z,5.99
2023-02-11T15:36:11.667Z,6.00
2023-02-11T15:38:38.673Z,6.04
2023-02-11T15:41:07.356Z,6.08
2023-02-11T15:43:48.011Z,6.01
2023-02-11T15:46:18.681Z,5.99
2023-02-11T15:48:51.658Z,6.02
2023-02-11T15:51:28.616Z,5.98
2023-02-11T15:53:59.238Z,5.94
2023-02-11T15:56:30.592Z,5.94
2023-02-11T15:59:00.678Z,5.90
2023-02-11T16:01:36.745Z,5.83
2023-02-11T16:04:05.264Z,5.84
2023-02-11T16:06:39.994Z,5.86
2023-02-11T16:09:08.524Z,5.85
2023-02-11T16:11:38.385Z,5.91
2023-02-11T16:14:22.809Z,5.90
2023-02-11T16:16:52.812Z,5.85
2023-02-11T16:19:22.971Z,5.81
2023-02-11T16:21:53.374Z,5.88
2023-02-11T16:24:34.093Z,5.81
2023-02-11T16:27:03.917Z,5.71
2023-02-11T16:29:33.343Z,5.67
2023-02-11T16:32:19.417Z,5.61
2023-02-11T16:34:47.460Z,5.55
2023-02-11T16:37:14.457Z,5.55
2023-02-11T16:39:41.573Z,5.50
2023-02-11T16:42:10.904Z,5.52
2023-02-11T16:44:37.780Z,5.61
2023-02-11T16:47:08.199Z,5.64
2023-02-11T16:49:39.997Z,5.81
2023-02-11T16:52:09.179Z,5.81
2023-02-11T16:54:35.648Z,5.69
2023-02-11T16:57:02.529Z,5.71
2023-02-11T16:59:29.668Z,5.70
2023-02-11T17:01:57.369Z,5.66
2023-02-11T17:04:29.885Z,5.57
2023-02-11T17:06:58.705Z,5.53
2023-02-11T17:09:30.337Z,5.55
2023-02-11T17:11:57.914Z,5.46
2023-02-11T17:14:28.608Z,5.52
2023-02-11T17:16:57.030Z,5.47
2023-02-11T17:19:23.854Z,5.43
2023-02-11T17:21:52.342Z,5.45
2023-02-11T17:24:20.560Z,5.45
2023-02-11T17:26:48.092Z,5.40
2023-02-11T17:29:18.303Z,5.44
2023-02-11T17:31:45.324Z,5.41
2023-02-11T17:34:14.631Z,5.34
2023-02-11T17:36:41.382Z,5.37
2023-02-11T17:39:08.626Z,5.38
2023-02-11T17:41:36.236Z,5.45
2023-02-11T17:44:03.529Z,5.47
2023-02-11T17:46:30.227Z,5.45
2023-02-11T17:48:58.748Z,5.48
2023-02-11T17:51:27.991Z,5.43
2023-02-11T17:54:00.020Z,5.44
2023-02-11T17:56:26.807Z,5.36
2023-02-11T17:58:53.818Z,5.37
2023-02-11T18:01:20.557Z,5.42
2023-02-11T18:03:47.636Z,5.43
2023-02-11T18:06:14.540Z,5.30
2023-02-11T18:08:43.060Z,5.29
2023-02-11T18:11:10.831Z,5.27
2023-02-11T18:13:37.475Z,5.25
2023-02-11T18:16:06.128Z,5.25
2023-02-11T18:18:33.828Z,5.27
2023-02-11T18:21:03.878Z,5.20
2023-02-11T18:23:30.580Z,5.24
2023-02-11T18:25:56.991Z,5.30
2023-02-11T18:28:25.884Z,5.20
2023-02-11T18:30:59.463Z,5.17
2023-02-11T18:33:27.360Z,5.25
2023-02-11T18:35:53.996Z,5.21
2023-02-11T18:38:22.352Z,5.27
2023-02-11T18:40:50.415Z,5.25
2023-02-11T18:43:18.796Z,5.22
2023-02-11T18:45:47.123Z,5.27
2023-02-11T18:48:14.132Z,5.45
2023-02-11T18:50:44.461Z,5.19
2023-02-11T18:53:13.331Z,5.04
2023-02-11T18:55:42.676Z,5.03
2023-02-11T18:58:10.867Z,5.07
2023-02-11T19:00:41.182Z,5.04
2023-02-11T19:03:07.904Z,5.05
2023-02-11T19:05:48.327Z,5.14
2023-02-11T19:08:15.514Z,5.11
2023-02-11T19:10:45.102Z,5.14
2023-02-11T19:13:11.970Z,5.06
2023-02-11T19:15:43.363Z,5.05
2023-02-11T19:18:10.775Z,5.02
2023-02-11T19:20:42.486Z,4.93
2023-02-11T19:23:09.268Z,4.99
2023-02-11T19:25:36.069Z,4.98
2023-02-11T19:28:03.806Z,5.00
2023-02-11T19:30:30.544Z,5.02
2023-02-11T19:32:57.927Z,5.10
2023-02-11T19:35:24.848Z,5.12
2023-02-11T19:37:51.406Z,5.08
2023-02-11T19:40:19.174Z,5.05
2023-02-11T19:42:45.702Z,5.06
2023-02-11T19:45:14.404Z,5.04
2023-02-11T19:47:41.233Z,5.08
2023-02-11T19:50:08.541Z,5.15
2023-02-11T19:52:46.165Z,5.15
2023-02-11T19:55:13.011Z,5.15
2023-02-11T19:57:40.028Z,5.22
2023-02-11T20:00:07.443Z,5.20
2023-02-11T20:02:37.797Z,5.16
2023-02-11T20:05:04.960Z,5.15
2023-02-11T20:07:31.381Z,5.16
2023-02-11T20:09:57.984Z,5.18
2023-02-11T20:12:24.370Z,5.17
2023-02-11T20:14:51.071Z,5.13
2023-02-11T20:17:17.529Z,5.19
2023-02-11T20:19:43.995Z,5.24
2023-02-11T20:22:10.358Z,5.20
2023-02-11T20:24:36.822Z,5.15
2023-02-11T20:27:03.326Z,5.08
2023-02-11T20:29:31.696Z,5.01
2023-02-11T20:31:58.439Z,4.86
2023-02-11T20:34:25.280Z,4.79
2023-02-11T20:36:52.385Z,4.80
2023-02-11T20:39:22.130Z,4.77
2023-02-11T20:41:49.525Z,4.67
2023-02-11T20:44:16.411Z,4.64
2023-02-11T20:46:48.224Z,4.63
2023-02-11T20:49:18.696Z,4.70
2023-02-11T20:51:46.106Z,4.63
2023-02-11T20:54:15.978Z,4.62
2023-02-11T20:56:45.516Z,4.57
2023-02-11T20:59:14.056Z,4.62
2023-02-11T21:01:44.167Z,4.61
2023-02-11T21:04:14.383Z,4.61
2023-02-11T21:06:44.689Z,4.67
2023-02-11T21:09:14.011Z,4.69
2023-02-11T21:11:41.244Z,4.68
2023-02-11T21:14:08.188Z,4.65
2023-02-11T21:16:34.904Z,4.62
2023-02-11T21:19:02.889Z,4.63
2023-02-11T21:21:30.045Z,4.65
2023-02-11T21:23:58.364Z,4.62
2023-02-11T21:26:25.390Z,4.60
2023-02-11T21:28:52.107Z,4.62
2023-02-11T21:31:23.251Z,4.64
2023-02-11T21:33:51.147Z,4.64
2023-02-11T21:36:17.862Z,4.68
2023-02-11T21:38:44.330Z,4.67
2023-02-11T21:41:10.751Z,4.69
2023-02-11T21:43:37.566Z,4.75
2023-02-11T21:46:14.890Z,4.79
2023-02-11T21:48:41.955Z,4.57
2023-02-11T21:51:11.150Z,4.50
2023-02-11T21:53:37.909Z,4.33
2023-02-11T21:56:10.182Z,4.21
2023-02-11T21:58:37.854Z,4.12
2023-02-11T22:01:18.228Z,3.82
2023-02-11T22:03:45.509Z,3.85
2023-02-11T22:06:15.184Z,3.96
2023-02-11T22:08:42.883Z,3.61
2023-02-11T22:11:12.546Z,3.90
2023-02-11T22:13:39.969Z,3.93
2023-02-11T22:16:09.525Z,3.52
2023-02-11T22:18:37.247Z,3.50
2023-02-11T22:21:08.014Z,3.43
2023-02-11T22:23:36.016Z,3.34
2023-02-11T22:26:14.924Z,3.17
2023-02-11T22:28:41.454Z,3.11
2023-02-11T22:31:13.411Z,3.16
2023-02-11T22:33:40.420Z,3.25
2023-02-11T22:36:12.315Z,3.34
2023-02-11T22:38:38.737Z,3.36
2023-02-11T22:41:07.842Z,3.46
2023-02-11T22:43:34.874Z,3.47
2023-02-11T22:46:05.822Z,3.57
2023-02-11T22:48:34.157Z,3.50
2023-02-11T22:51:08.565Z,3.54
2023-02-11T22:53:35.501Z,3.58
2023-02-11T22:56:07.347Z,3.50
2023-02-11T22:58:35.472Z,3.52
2023-02-11T23:01:02.858Z,3.59
2023-02-11T23:03:31.319Z,3.75
2023-02-11T23:06:00.817Z,3.62
2023-02-11T23:08:29.876Z,3.68
2023-02-11T23:11:04.262Z,3.77
2023-02-11T23:13:34.730Z,3.67
2023-02-11T23:16:07.318Z,3.73
2023-02-11T23:18:38.581Z,3.66
2023-02-11T23:21:15.683Z,3.68
2023-02-11T23:23:43.208Z,3.67
2023-02-11T23:26:12.607Z,3.69
2023-02-11T23:28:39.675Z,3.68
2023-02-11T23:31:18.105Z,3.71
2023-02-11T23:33:46.687Z,3.79
2023-02-11T23:36:15.116Z,3.83
2023-02-11T23:38:42.302Z,3.81
2023-02-11T23:41:10.088Z,3.83
2023-02-11T23:43:37.480Z,3.82
2023-02-11T23:46:05.006Z,3.75
2023-02-11T23:48:33.831Z,3.75
2023-02-11T23:51:00.570Z,3.76
2023-02-11T23:53:28.081Z,3.89
2023-02-11T23:55:55.037Z,3.89
2023-02-11T23:58:21.977Z,3.94
